createdAt,value
2023-05-18T00:00:20.089Z,101062.72
2023-05-18T00:00:51.556Z,101065.72
2023-05-18T00:01:23.058Z,101069.84
2023-05-18T00:01:54.531Z,101070.06
2023-05-18T00:02:26.092Z,101071.16
2023-05-18T00:02:57.892Z,101062.97
2023-05-18T00:03:29.693Z,101074.38
2023-05-18T00:04:01.396Z,101077.19
2023-05-18T00:04:33.070Z,101071.75
2023-05-18T00:05:04.675Z,101073.97
2023-05-18T00:05:36.116Z,101072.31
2023-05-18T00:06:07.610Z,101062.00
2023-05-18T00:06:39.104Z,101066.38
2023-05-18T00:07:10.591Z,101070.41
2023-05-18T00:07:42.052Z,101068.53
2023-05-18T00:08:13.616Z,101068.19
2023-05-18T00:08:45.094Z,101062.72
2023-05-18T00:09:16.587Z,101066.06
2023-05-18T00:09:48.124Z,101069.84
2023-05-18T00:10:19.643Z,101067.69
2023-05-18T00:10:51.142Z,101066.88
2023-05-18T00:11:22.590Z,101067.44
2023-05-18T00:11:54.059Z,101068.44
2023-05-18T00:12:25.533Z,101070.06
2023-05-18T00:12:56.975Z,101062.41
2023-05-18T00:13:28.512Z,101072.56
2023-05-18T00:14:00.086Z,101075.88
2023-05-18T00:14:31.634Z,101068.78
2023-05-18T00:15:03.119Z,101070.06
2023-05-18T00:15:34.600Z,101065.72
2023-05-18T00:16:06.153Z,101070.84
2023-05-18T00:16:37.730Z,101068.69
2023-05-18T00:17:09.265Z,101070.59
2023-05-18T00:17:40.780Z,101072.78
2023-05-18T00:18:12.319Z,101074.78
2023-05-18T00:18:43.959Z,101074.22
2023-05-18T00:19:15.533Z,101073.88
2023-05-18T00:19:47.034Z,101076.03
2023-05-18T00:20:18.472Z,101074.13
2023-05-18T00:20:49.924Z,101070.06
2023-05-18T00:21:21.442Z,101070.91
2023-05-18T00:21:52.896Z,101070.69
2023-05-18T00:22:26.215Z,101071.81
2023-05-18T00:22:57.718Z,101072.78
2023-05-18T00:23:29.419Z,101079.06
2023-05-18T00:24:00.926Z,101070.31
2023-05-18T00:24:32.402Z,101067.94
2023-05-18T00:25:05.098Z,101069.25
2023-05-18T00:25:36.680Z,101073.97
2023-05-18T00:26:08.125Z,101072.31
2023-05-18T00:26:39.791Z,101066.06
2023-05-18T00:27:11.223Z,101066.31
2023-05-18T00:27:42.620Z,101077.41
2023-05-18T00:28:14.100Z,101062.25
2023-05-18T00:28:45.575Z,101065.22
2023-05-18T00:29:17.174Z,101068.53
2023-05-18T00:29:48.634Z,101074.28
2023-05-18T00:30:20.127Z,101073.13
2023-05-18T00:30:51.549Z,101071.25
2023-05-18T00:31:23.042Z,101077.75
2023-05-18T00:31:54.600Z,101080.97
2023-05-18T00:32:26.190Z,101069.03
2023-05-18T00:32:57.718Z,101075.94
2023-05-18T00:33:29.205Z,101072.31
2023-05-18T00:34:00.705Z,101073.47
2023-05-18T00:34:32.252Z,101075.53
2023-05-18T00:35:03.749Z,101074.47
2023-05-18T00:35:35.238Z,101077.50
2023-05-18T00:36:06.753Z,101078.25
2023-05-18T00:36:38.253Z,101072.56
2023-05-18T00:37:09.688Z,101077.50
2023-05-18T00:37:41.209Z,101079.41
2023-05-18T00:38:12.686Z,101085.09
2023-05-18T00:38:44.193Z,101075.63
2023-05-18T00:39:15.732Z,101075.88
2023-05-18T00:39:47.300Z,101084.84
2023-05-18T00:40:18.806Z,101076.34
2023-05-18T00:40:50.273Z,101078.84
2023-05-18T00:41:21.741Z,101070.69
2023-05-18T00:41:53.205Z,101074.53
2023-05-18T00:42:24.653Z,101072.63
2023-05-18T00:42:56.136Z,101076.69
2023-05-18T00:43:30.521Z,101078.59
2023-05-18T00:44:02.015Z,101081.06
2023-05-18T00:44:33.476Z,101082.38
2023-05-18T00:45:05.002Z,101078.84
2023-05-18T00:45:36.463Z,101078.59
2023-05-18T00:46:08.026Z,101077.50
2023-05-18T00:46:39.519Z,101074.47
2023-05-18T00:47:11.009Z,101076.13
2023-05-18T00:47:42.503Z,101072.78
2023-05-18T00:48:14.072Z,101070.91
2023-05-18T00:48:45.580Z,101079.97
2023-05-18T00:49:17.074Z,101081.06
2023-05-18T00:49:48.560Z,101081.56
2023-05-18T00:50:20.071Z,101077.75
2023-05-18T00:50:51.527Z,101076.13
2023-05-18T00:51:23.028Z,101075.88
2023-05-18T00:51:54.451Z,101078.84
2023-05-18T00:52:26.009Z,101080.81
2023-05-18T00:52:57.514Z,101077.00
2023-05-18T00:53:28.974Z,101073.97
2023-05-18T00:54:00.453Z,101079.16
2023-05-18T00:54:31.964Z,101075.03
2023-05-18T00:55:03.453Z,101076.13
2023-05-18T00:55:34.976Z,101075.28
2023-05-18T00:56:06.437Z,101073.41
2023-05-18T00:56:37.883Z,101067.94
2023-05-18T00:57:09.371Z,101072.31
2023-05-18T00:57:40.803Z,101064.16
2023-05-18T00:58:12.348Z,101071.25
2023-05-18T00:58:43.909Z,101072.56
2023-05-18T00:59:15.443Z,101070.91
2023-05-18T00:59:46.867Z,101070.69
2023-05-18T01:00:18.363Z,101068.84
2023-05-18T01:00:49.855Z,101069.66
2023-05-18T01:01:21.346Z,101072.06
2023-05-18T01:01:52.920Z,101071.25
2023-05-18T01:02:24.522Z,101072.88
2023-05-18T01:02:56.106Z,101074.47
2023-05-18T01:03:27.741Z,101067.44
2023-05-18T01:03:59.253Z,101071.97
2023-05-18T01:04:30.774Z,101071.16
2023-05-18T01:05:02.279Z,101072.22
2023-05-18T01:05:33.806Z,101074.13
2023-05-18T01:06:05.348Z,101075.78
2023-05-18T01:06:36.883Z,101073.31
2023-05-18T01:07:08.365Z,101078.44
2023-05-18T01:07:39.849Z,101070.84
2023-05-18T01:08:11.310Z,101070.00
2023-05-18T01:08:42.738Z,101069.19
2023-05-18T01:09:14.262Z,101067.28
2023-05-18T01:09:45.792Z,101070.59
2023-05-18T01:10:17.326Z,101073.56
2023-05-18T01:10:48.805Z,101072.16
2023-05-18T01:11:20.329Z,101073.56
2023-05-18T01:11:51.840Z,101070.00
2023-05-18T01:12:23.287Z,101072.72
2023-05-18T01:12:54.741Z,101071.09
2023-05-18T01:13:26.201Z,101073.81
2023-05-18T01:13:57.687Z,101072.72
2023-05-18T01:14:30.685Z,101068.63
2023-05-18T01:15:02.374Z,101077.34
2023-05-18T01:15:33.938Z,101080.06
2023-05-18T01:16:05.447Z,101073.31
2023-05-18T01:16:36.940Z,101076.28
2023-05-18T01:17:08.456Z,101076.28
2023-05-18T01:17:39.973Z,101079.25
2023-05-18T01:18:11.444Z,101075.47
2023-05-18T01:18:42.970Z,101074.88
2023-05-18T01:19:14.498Z,101077.59
2023-05-18T01:19:46.006Z,101073.00
2023-05-18T01:20:17.447Z,101072.16
2023-05-18T01:20:48.943Z,101073.00
2023-05-18T01:21:20.480Z,101071.91
2023-05-18T01:21:51.939Z,101066.47
2023-05-18T01:22:23.440Z,101070.00
2023-05-18T01:22:54.906Z,101077.34
2023-05-18T01:23:26.336Z,101081.16
2023-05-18T01:24:00.412Z,101077.34
2023-05-18T01:24:31.982Z,101076.78
2023-05-18T01:25:03.474Z,101072.41
2023-05-18T01:25:34.956Z,101071.03
2023-05-18T01:26:06.490Z,101072.16
2023-05-18T01:26:38.197Z,101072.47
2023-05-18T01:27:09.767Z,101075.47
2023-05-18T01:27:41.223Z,101070.25
2023-05-18T01:28:12.693Z,101072.16
2023-05-18T01:28:44.186Z,101070.50
2023-05-18T01:29:15.636Z,101071.66
2023-05-18T01:29:47.172Z,101066.72
2023-05-18T01:30:18.754Z,101069.44
2023-05-18T01:30:50.333Z,101068.63
2023-05-18T01:31:21.939Z,101073.81
2023-05-18T01:31:53.611Z,101075.13
2023-05-18T01:32:25.325Z,101074.63
2023-05-18T01:32:56.873Z,101072.16
2023-05-18T01:33:28.434Z,101075.72
2023-05-18T01:33:59.932Z,101071.34
2023-05-18T01:34:31.573Z,101072.41
2023-05-18T01:35:03.149Z,101075.97
2023-05-18T01:35:34.771Z,101066.41
2023-05-18T01:36:06.254Z,101068.88
2023-05-18T01:36:37.901Z,101072.16
2023-05-18T01:37:09.530Z,101068.38
2023-05-18T01:37:41.213Z,101069.44
2023-05-18T01:38:12.841Z,101078.44
2023-05-18T01:38:44.568Z,101072.16
2023-05-18T01:39:16.110Z,101072.41
2023-05-18T01:39:47.755Z,101071.59
2023-05-18T01:40:19.306Z,101074.88
2023-05-18T01:40:50.873Z,101074.31
2023-05-18T01:41:22.370Z,101074.88
2023-05-18T01:41:53.900Z,101070.50
2023-05-18T01:42:25.328Z,101071.34
2023-05-18T01:42:56.863Z,101070.25
2023-05-18T01:43:28.350Z,101074.31
2023-05-18T01:43:59.891Z,101076.03
2023-05-18T01:44:31.358Z,101078.44
2023-05-18T01:45:02.985Z,101083.06
2023-05-18T01:45:34.432Z,101079.25
2023-05-18T01:46:05.969Z,101082.53
2023-05-18T01:46:37.504Z,101077.59
2023-05-18T01:47:09.070Z,101077.03
2023-05-18T01:47:40.593Z,101078.13
2023-05-18T01:48:12.248Z,101075.13
2023-05-18T01:48:43.793Z,101075.72
2023-05-18T01:49:15.342Z,101074.88
2023-05-18T01:49:46.865Z,101073.25
2023-05-18T01:50:18.350Z,101077.09
2023-05-18T01:50:49.764Z,101073.56
2023-05-18T01:51:21.347Z,101078.69
2023-05-18T01:51:52.832Z,101081.97
2023-05-18T01:52:24.285Z,101082.78
2023-05-18T01:52:55.761Z,101081.41
2023-05-18T01:53:27.245Z,101084.69
2023-05-18T01:53:58.742Z,101085.53
2023-05-18T01:54:30.218Z,101080.59
2023-05-18T01:55:01.718Z,101085.28
2023-05-18T01:55:33.267Z,101084.69
2023-05-18T01:56:04.745Z,101079.25
2023-05-18T01:56:36.232Z,101075.72
2023-05-18T01:57:07.676Z,101082.53
2023-05-18T01:57:39.151Z,101080.66
2023-05-18T01:58:10.665Z,101074.13
2023-05-18T01:58:42.416Z,101083.38
2023-05-18T01:59:14.482Z,101082.53
2023-05-18T01:59:46.236Z,101075.47
2023-05-18T02:00:17.764Z,101079.25
2023-05-18T02:00:49.229Z,101077.59
2023-05-18T02:01:20.822Z,101080.06
2023-05-18T02:01:59.349Z,101079.25
2023-05-18T02:02:31.494Z,101073.00
2023-05-18T02:03:03.099Z,101080.34
2023-05-18T02:03:34.789Z,101080.34
2023-05-18T02:04:06.493Z,101074.63
2023-05-18T02:04:38.020Z,101075.47
2023-05-18T02:05:09.544Z,101076.78
2023-05-18T02:05:41.030Z,101078.13
2023-05-18T02:06:12.452Z,101077.28
2023-05-18T02:06:43.976Z,101077.03
2023-05-18T02:07:15.426Z,101069.13
2023-05-18T02:07:46.903Z,101071.59
2023-05-18T02:08:18.363Z,101062.59
2023-05-18T02:08:50.027Z,101074.31
2023-05-18T02:09:21.533Z,101069.69
2023-05-18T02:09:53.055Z,101074.88
2023-05-18T02:10:24.579Z,101073.25
2023-05-18T02:10:56.046Z,101083.06
2023-05-18T02:11:27.495Z,101074.88
2023-05-18T02:11:59.023Z,101076.53
2023-05-18T02:12:30.500Z,101074.06
2023-05-18T02:13:01.951Z,101070.50
2023-05-18T02:13:33.491Z,101080.59
2023-05-18T02:14:04.957Z,101080.59
2023-05-18T02:14:36.454Z,101075.38
2023-05-18T02:15:07.928Z,101078.69
2023-05-18T02:15:39.418Z,101075.13
2023-05-18T02:16:10.937Z,101080.59
2023-05-18T02:16:42.588Z,101077.03
2023-05-18T02:17:14.208Z,101075.13
2023-05-18T02:17:46.030Z,101075.97
2023-05-18T02:18:17.532Z,101078.69
2023-05-18T02:18:49.011Z,101080.34
2023-05-18T02:19:20.650Z,101079.75
2023-05-18T02:19:52.226Z,101080.59
2023-05-18T02:20:23.643Z,101086.84
2023-05-18T02:20:55.081Z,101077.03
2023-05-18T02:21:29.521Z,101082.22
2023-05-18T02:22:00.987Z,101080.59
2023-05-18T02:22:32.483Z,101079.75
2023-05-18T02:23:03.961Z,101081.41
2023-05-18T02:23:35.401Z,101077.59
2023-05-18T02:24:07.366Z,101077.28
2023-05-18T02:24:38.818Z,101078.13
2023-05-18T02:25:10.292Z,101075.38
2023-05-18T02:25:41.753Z,101080.59
2023-05-18T02:26:13.201Z,101076.22
2023-05-18T02:26:44.654Z,101078.94
2023-05-18T02:27:16.209Z,101080.59
2023-05-18T02:27:47.777Z,101072.41
2023-05-18T02:28:19.253Z,101084.38
2023-05-18T02:28:50.748Z,101084.13
2023-05-18T02:29:22.282Z,101080.34
2023-05-18T02:29:54.035Z,101083.06
2023-05-18T02:30:25.501Z,101075.97
2023-05-18T02:30:56.933Z,101079.75
2023-05-18T02:31:28.563Z,101074.31
2023-05-18T02:32:00.051Z,101079.75
2023-05-18T02:32:34.630Z,101078.69
2023-05-18T02:33:06.394Z,101083.31
2023-05-18T02:33:37.892Z,101080.59
2023-05-18T02:34:09.324Z,101080.59
2023-05-18T02:34:40.782Z,101076.78
2023-05-18T02:35:12.241Z,101083.31
2023-05-18T02:35:43.674Z,101088.75
2023-05-18T02:36:15.146Z,101079.50
2023-05-18T02:36:46.699Z,101078.69
2023-05-18T02:37:18.150Z,101083.06
2023-05-18T02:37:49.592Z,101080.59
2023-05-18T02:38:21.173Z,101082.47
2023-05-18T02:38:52.681Z,101074.56
2023-05-18T02:39:24.166Z,101080.59
2023-05-18T02:39:55.659Z,101081.41
2023-05-18T02:40:27.165Z,101082.47
2023-05-18T02:40:58.614Z,101082.22
2023-05-18T02:41:30.110Z,101084.13
2023-05-18T02:42:01.604Z,101077.59
2023-05-18T02:42:33.091Z,101087.66
2023-05-18T02:43:04.572Z,101080.06
2023-05-18T02:43:36.113Z,101079.50
2023-05-18T02:44:07.581Z,101082.72
2023-05-18T02:44:38.984Z,101082.72
2023-05-18T02:45:10.416Z,101083.56
2023-05-18T02:45:41.932Z,101086.03
2023-05-18T02:46:13.457Z,101082.22
2023-05-18T02:46:44.935Z,101078.94
2023-05-18T02:47:16.373Z,101085.19
2023-05-18T02:47:47.910Z,101086.03
2023-05-18T02:48:19.399Z,101078.94
2023-05-18T02:48:50.897Z,101079.75
2023-05-18T02:49:22.347Z,101090.41
2023-05-18T02:49:53.801Z,101083.88
2023-05-18T02:50:25.262Z,101086.03
2023-05-18T02:50:56.723Z,101087.66
2023-05-18T02:51:28.137Z,101085.19
2023-05-18T02:51:59.575Z,101086.84
2023-05-18T02:52:31.027Z,101085.19
2023-05-18T02:53:02.528Z,101091.47
2023-05-18T02:53:34.063Z,101088.50
2023-05-18T02:54:47.953Z,101086.28
2023-05-18T02:55:19.215Z,101088.50
2023-05-18T02:55:50.641Z,101085.19
2023-05-18T02:56:22.038Z,101087.41
2023-05-18T02:56:53.483Z,101090.41
2023-05-18T02:57:24.965Z,101087.94
2023-05-18T02:57:56.393Z,101089.56
2023-05-18T02:58:27.896Z,101086.59
2023-05-18T02:58:59.339Z,101085.19
2023-05-18T02:59:30.746Z,101092.28
2023-05-18T03:00:02.208Z,101088.75
2023-05-18T03:00:33.624Z,101093.69
2023-05-18T03:01:05.130Z,101086.34
2023-05-18T03:01:36.655Z,101086.09
2023-05-18T03:02:08.134Z,101081.72
2023-05-18T03:02:39.648Z,101094.50
2023-05-18T03:03:11.301Z,101091.28
2023-05-18T03:03:42.855Z,101090.47
2023-05-18T03:04:14.283Z,101091.28
2023-05-18T03:04:46.533Z,101092.34
2023-05-18T03:05:19.499Z,101094.56
2023-05-18T03:05:50.908Z,101089.63
2023-05-18T03:06:22.369Z,101091.28
2023-05-18T03:06:53.807Z,101092.09
2023-05-18T03:07:25.248Z,101089.13
2023-05-18T03:07:56.638Z,101091.03
2023-05-18T03:08:28.101Z,101091.63
2023-05-18T03:08:59.568Z,101098.63
2023-05-18T03:09:30.975Z,101095.66
2023-05-18T03:10:02.435Z,101088.31
2023-05-18T03:10:33.974Z,101094.00
2023-05-18T03:11:05.366Z,101095.06
2023-05-18T03:11:36.779Z,101097.06
2023-05-18T03:12:08.285Z,101099.19
2023-05-18T03:12:39.832Z,101098.97
2023-05-18T03:13:11.215Z,101096.25
2023-05-18T03:13:42.613Z,101095.19
2023-05-18T03:14:14.129Z,101091.63
2023-05-18T03:14:45.509Z,101094.09
2023-05-18T03:15:16.966Z,101095.19
2023-05-18T03:15:48.452Z,101098.13
2023-05-18T03:16:19.940Z,101096.72
2023-05-18T03:16:51.484Z,101090.31
2023-05-18T03:17:23.003Z,101093.03
2023-05-18T03:17:54.484Z,101093.84
2023-05-18T03:18:25.976Z,101089.47
2023-05-18T03:18:57.422Z,101093.28
2023-05-18T03:19:28.933Z,101090.31
2023-05-18T03:20:00.369Z,101093.53
2023-05-18T03:20:31.846Z,101091.44
2023-05-18T03:21:03.266Z,101094.16
2023-05-18T03:21:34.688Z,101091.94
2023-05-18T03:22:06.071Z,101089.78
2023-05-18T03:22:37.476Z,101096.88
2023-05-18T03:23:08.968Z,101091.69
2023-05-18T03:23:40.453Z,101092.75
2023-05-18T03:24:11.890Z,101098.47
2023-05-18T03:24:43.371Z,101098.47
2023-05-18T03:25:14.795Z,101096.81
2023-05-18T03:25:46.231Z,101095.75
2023-05-18T03:26:17.628Z,101093.34
2023-05-18T03:26:49.043Z,101095.25
2023-05-18T03:27:20.508Z,101092.75
2023-05-18T03:27:51.953Z,101105.06
2023-05-18T03:28:23.338Z,101098.78
2023-05-18T03:28:54.928Z,101100.19
2023-05-18T03:29:26.353Z,101096.06
2023-05-18T03:29:57.812Z,101099.84
2023-05-18T03:30:29.268Z,101100.94
2023-05-18T03:31:00.711Z,101090.09
2023-05-18T03:31:32.161Z,101094.16
2023-05-18T03:32:03.614Z,101095.81
2023-05-18T03:32:35.121Z,101096.69
2023-05-18T03:33:06.563Z,101091.75
2023-05-18T03:33:38.178Z,101095.81
2023-05-18T03:34:09.689Z,101094.41
2023-05-18T03:34:41.123Z,101097.38
2023-05-18T03:35:12.587Z,101091.38
2023-05-18T03:35:44.750Z,101094.91
2023-05-18T03:36:17.412Z,101099.03
2023-05-18T03:36:48.871Z,101096.31
2023-05-18T03:37:20.289Z,101096.31
2023-05-18T03:37:51.694Z,101100.13
2023-05-18T03:38:23.126Z,101101.25
2023-05-18T03:38:54.535Z,101099.34
2023-05-18T03:39:25.987Z,101102.13
2023-05-18T03:39:57.414Z,101095.56
2023-05-18T03:40:28.861Z,101097.72
2023-05-18T03:41:00.316Z,101104.78
2023-05-18T03:41:31.794Z,101102.66
2023-05-18T03:42:03.290Z,101099.59
2023-05-18T03:42:34.696Z,101100.19
2023-05-18T03:43:06.115Z,101104.78
2023-05-18T03:43:37.542Z,101094.47
2023-05-18T03:44:08.931Z,101099.91
2023-05-18T03:44:40.339Z,101098.84
2023-05-18T03:45:11.742Z,101102.06
2023-05-18T03:45:43.219Z,101099.59
2023-05-18T03:46:14.680Z,101102.31
2023-05-18T03:46:46.180Z,101103.16
2023-05-18T03:47:17.673Z,101102.66
2023-05-18T03:47:49.114Z,101097.44
2023-05-18T03:48:20.558Z,101099.03
2023-05-18T03:48:52.010Z,101097.19
2023-05-18T03:49:23.402Z,101094.47
2023-05-18T03:49:54.845Z,101096.38
2023-05-18T03:50:26.267Z,101105.69
2023-05-18T03:50:57.749Z,101099.66
2023-05-18T03:51:29.159Z,101103.22
2023-05-18T03:52:00.579Z,101102.97
2023-05-18T03:52:32.024Z,101107.59
2023-05-18T03:53:03.452Z,101099.91
2023-05-18T03:53:34.833Z,101102.31
2023-05-18T03:54:06.295Z,101095.81
2023-05-18T03:54:37.776Z,101105.63
2023-05-18T03:55:09.170Z,101100.19
2023-05-18T03:55:40.614Z,101100.69
2023-05-18T03:56:12.196Z,101102.06
2023-05-18T03:56:43.621Z,101106.44
2023-05-18T03:57:15.028Z,101100.75
2023-05-18T03:57:46.389Z,101102.97
2023-05-18T03:58:17.796Z,101111.13
2023-05-18T03:58:49.320Z,101097.19
2023-05-18T03:59:20.759Z,101103.72
2023-05-18T03:59:52.224Z,101103.97
2023-05-18T04:00:23.609Z,101105.63
2023-05-18T04:00:55.038Z,101105.13
2023-05-18T04:01:26.460Z,101105.69
2023-05-18T04:01:57.939Z,101105.94
2023-05-18T04:02:29.629Z,101105.06
2023-05-18T04:03:01.387Z,101101.00
2023-05-18T04:03:32.884Z,101105.63
2023-05-18T04:04:04.361Z,101105.88
2023-05-18T04:04:35.839Z,101107.78
2023-05-18T04:05:07.308Z,101108.59
2023-05-18T04:05:38.711Z,101108.59
2023-05-18T04:06:10.149Z,101106.44
2023-05-18T04:06:41.561Z,101103.97
2023-05-18T04:07:14.848Z,101109.41
2023-05-18T04:07:46.926Z,101103.97
2023-05-18T04:08:18.365Z,101108.09
2023-05-18T04:08:49.970Z,101108.09
2023-05-18T04:09:21.408Z,101101.88
2023-05-18T04:09:52.843Z,101107.84
2023-05-18T04:10:24.258Z,101109.72
2023-05-18T04:10:55.651Z,101101.81
2023-05-18T04:11:27.020Z,101109.41
2023-05-18T04:11:58.419Z,101104.28
2023-05-18T04:12:29.819Z,101110.06
2023-05-18T04:13:01.244Z,101105.69
2023-05-18T04:13:32.614Z,101111.63
2023-05-18T04:14:04.166Z,101108.09
2023-05-18T04:14:35.600Z,101102.91
2023-05-18T04:15:07.076Z,101113.53
2023-05-18T04:15:38.571Z,101113.28
2023-05-18T04:16:10.104Z,101111.06
2023-05-18T04:16:41.619Z,101113.22
2023-05-18T04:17:13.116Z,101107.78
2023-05-18T04:17:44.578Z,101107.59
2023-05-18T04:18:16.035Z,101108.34
2023-05-18T04:18:47.516Z,101111.13
2023-05-18T04:19:19.110Z,101117.34
2023-05-18T04:19:50.636Z,101112.72
2023-05-18T04:20:22.129Z,101108.34
2023-05-18T04:20:53.558Z,101105.88
2023-05-18T04:21:24.990Z,101108.84
2023-05-18T04:21:56.360Z,101108.84
2023-05-18T04:22:27.792Z,101106.13
2023-05-18T04:22:59.228Z,101113.22
2023-05-18T04:23:30.631Z,101106.50
2023-05-18T04:24:02.154Z,101105.63
2023-05-18T04:24:33.670Z,101107.53
2023-05-18T04:25:05.084Z,101107.59
2023-05-18T04:25:36.491Z,101109.72
2023-05-18T04:26:07.936Z,101110.81
2023-05-18T04:26:39.326Z,101114.69
2023-05-18T04:27:10.783Z,101110.00
2023-05-18T04:27:42.261Z,101113.28
2023-05-18T04:28:13.794Z,101109.16
2023-05-18T04:28:45.177Z,101114.59
2023-05-18T04:29:16.765Z,101115.94
2023-05-18T04:29:48.201Z,101106.94
2023-05-18T04:30:19.640Z,101108.59
2023-05-18T04:30:51.061Z,101112.41
2023-05-18T04:31:22.600Z,101114.59
2023-05-18T04:31:54.149Z,101105.63
2023-05-18T04:32:25.619Z,101112.19
2023-05-18T04:32:57.023Z,101109.22
2023-05-18T04:33:28.494Z,101110.31
2023-05-18T04:33:59.870Z,101112.72
2023-05-18T04:34:31.326Z,101118.41
2023-05-18T04:35:02.851Z,101109.16
2023-05-18T04:35:34.223Z,101115.69
2023-05-18T04:36:05.650Z,101111.88
2023-05-18T04:36:37.078Z,101116.00
2023-05-18T04:37:08.553Z,101114.59
2023-05-18T04:37:39.944Z,101112.47
2023-05-18T04:38:11.353Z,101111.06
2023-05-18T04:38:42.818Z,101109.72
2023-05-18T04:39:14.212Z,101115.44
2023-05-18T04:39:45.703Z,101105.63
2023-05-18T04:40:17.526Z,101119.22
2023-05-18T04:40:49.112Z,101111.56
2023-05-18T04:41:20.641Z,101110.50
2023-05-18T04:41:52.091Z,101115.44
2023-05-18T04:42:23.590Z,101114.34
2023-05-18T04:42:54.965Z,101114.34
2023-05-18T04:43:26.369Z,101115.19
2023-05-18T04:43:57.886Z,101112.78
2023-05-18T04:44:29.288Z,101119.63
2023-05-18T04:45:00.725Z,101117.13
2023-05-18T04:45:32.420Z,101117.41
2023-05-18T04:46:04.143Z,101113.84
2023-05-18T04:46:35.576Z,101119.88
2023-05-18T04:47:07.051Z,101120.94
2023-05-18T04:47:38.501Z,101115.19
2023-05-18T04:48:09.963Z,101113.28
2023-05-18T04:48:41.399Z,101121.97
2023-05-18T04:49:12.812Z,101119.81
2023-05-18T04:49:44.244Z,101113.78
2023-05-18T04:50:15.669Z,101119.81
2023-05-18T04:50:47.107Z,101115.19
2023-05-18T04:51:18.599Z,101116.00
2023-05-18T04:51:50.023Z,101111.06
2023-05-18T04:52:21.447Z,101116.50
2023-05-18T04:52:52.875Z,101115.69
2023-05-18T04:53:24.313Z,101112.72
2023-05-18T04:53:55.791Z,101109.41
2023-05-18T04:54:27.309Z,101104.53
2023-05-18T04:54:58.724Z,101114.34
2023-05-18T04:55:30.358Z,101112.47
2023-05-18T04:56:02.044Z,101109.41
2023-05-18T04:56:33.507Z,101113.47
2023-05-18T04:57:04.922Z,101108.34
2023-05-18T04:57:36.395Z,101112.16
2023-05-18T04:58:07.880Z,101110.00
2023-05-18T04:58:39.313Z,101110.50
2023-05-18T04:59:10.784Z,101115.94
2023-05-18T04:59:42.175Z,101118.66
2023-05-18T05:00:13.636Z,101116.75
2023-05-18T05:00:45.089Z,101115.13
2023-05-18T05:01:16.523Z,101115.44
2023-05-18T05:01:48.122Z,101118.16
2023-05-18T05:02:19.624Z,101114.59
2023-05-18T05:02:51.199Z,101120.94
2023-05-18T05:03:22.744Z,101116.00
2023-05-18T05:03:54.235Z,101116.50
2023-05-18T05:04:25.838Z,101118.72
2023-05-18T05:04:57.244Z,101118.41
2023-05-18T05:05:28.835Z,101115.19
2023-05-18T05:06:00.455Z,101119.63
2023-05-18T05:06:31.940Z,101117.91
2023-05-18T05:07:03.424Z,101127.47
2023-05-18T05:07:34.922Z,101117.13
2023-05-18T05:08:06.356Z,101119.88
2023-05-18T05:08:37.750Z,101120.94
2023-05-18T05:09:09.173Z,101121.75
2023-05-18T05:09:40.561Z,101118.16
2023-05-18T05:10:11.945Z,101123.03
2023-05-18T05:10:43.406Z,101119.22
2023-05-18T05:11:14.787Z,101114.34
2023-05-18T05:11:46.260Z,101119.28
2023-05-18T05:12:17.769Z,101116.00
2023-05-18T05:12:49.708Z,101116.25
2023-05-18T05:13:21.304Z,101125.25
2023-05-18T05:13:52.786Z,101118.41
2023-05-18T05:14:24.212Z,101117.34
2023-05-18T05:14:55.644Z,101125.00
2023-05-18T05:15:27.079Z,101121.69
2023-05-18T05:15:58.513Z,101122.03
2023-05-18T05:16:30.055Z,101127.97
2023-05-18T05:17:01.564Z,101121.13
2023-05-18T05:17:33.075Z,101121.97
2023-05-18T05:18:04.548Z,101127.41
2023-05-18T05:18:35.954Z,101121.13
2023-05-18T05:19:07.455Z,101126.06
2023-05-18T05:19:38.896Z,101131.19
2023-05-18T05:20:10.345Z,101116.25
2023-05-18T05:20:41.816Z,101129.38
2023-05-18T05:21:13.220Z,101122.78
2023-05-18T05:21:44.675Z,101131.19
2023-05-18T05:22:16.219Z,101127.66
2023-05-18T05:22:47.810Z,101118.47
2023-05-18T05:23:19.330Z,101132.59
2023-05-18T05:23:51.153Z,101123.41
2023-05-18T05:24:22.631Z,101119.53
2023-05-18T05:24:54.029Z,101119.53
2023-05-18T05:25:25.416Z,101125.25
2023-05-18T05:25:56.861Z,101121.75
2023-05-18T05:26:28.334Z,101128.03
2023-05-18T05:26:59.755Z,101127.22
2023-05-18T05:27:31.167Z,101129.63
2023-05-18T05:28:02.570Z,101129.38
2023-05-18T05:28:33.986Z,101128.84
2023-05-18T05:29:05.401Z,101126.63
2023-05-18T05:29:36.833Z,101126.63
2023-05-18T05:30:08.233Z,101130.50
2023-05-18T05:30:39.610Z,101124.81
2023-05-18T05:31:11.050Z,101125.56
2023-05-18T05:31:42.578Z,101136.19
2023-05-18T05:32:14.124Z,101124.75
2023-05-18T05:32:45.628Z,101129.63
2023-05-18T05:33:17.139Z,101125.81
2023-05-18T05:33:48.536Z,101126.97
2023-05-18T05:34:20.004Z,101130.50
2023-05-18T05:34:51.519Z,101125.31
2023-05-18T05:35:22.950Z,101131.31
2023-05-18T05:35:54.414Z,101119.28
2023-05-18T05:36:25.955Z,101134.31
2023-05-18T05:36:57.474Z,101131.53
2023-05-18T05:37:28.867Z,101130.13
2023-05-18T05:38:00.316Z,101126.06
2023-05-18T05:38:31.788Z,101129.13
2023-05-18T05:39:03.236Z,101129.94
2023-05-18T05:39:34.734Z,101129.19
2023-05-18T05:40:06.172Z,101125.06
2023-05-18T05:40:37.593Z,101131.31
2023-05-18T05:41:08.979Z,101130.19
2023-05-18T05:41:40.423Z,101131.59
2023-05-18T05:42:11.836Z,101131.00
2023-05-18T05:42:43.301Z,101126.97
2023-05-18T05:43:14.750Z,101126.13
2023-05-18T05:43:46.176Z,101138.34
2023-05-18T05:44:17.726Z,101130.75
2023-05-18T05:44:49.260Z,101134.06
2023-05-18T05:45:20.706Z,101133.47
2023-05-18T05:45:52.302Z,101133.72
2023-05-18T05:46:24.027Z,101136.53
2023-05-18T05:46:55.448Z,101136.25
2023-05-18T05:47:26.936Z,101136.53
2023-05-18T05:47:58.463Z,101134.56
2023-05-18T05:48:29.947Z,101144.44
2023-05-18T05:49:01.384Z,101135.69
2023-05-18T05:49:32.835Z,101134.88
2023-05-18T05:50:04.359Z,101141.13
2023-05-18T05:50:35.752Z,101140.38
2023-05-18T05:51:07.198Z,101144.94
2023-05-18T05:51:38.606Z,101139.00
2023-05-18T05:52:10.021Z,101132.97
2023-05-18T05:52:41.451Z,101147.09
2023-05-18T05:53:12.876Z,101133.22
2023-05-18T05:53:44.262Z,101143.03
2023-05-18T05:54:15.700Z,101135.69
2023-05-18T05:54:47.095Z,101146.28
2023-05-18T05:55:18.570Z,101137.84
2023-05-18T05:55:49.968Z,101135.13
2023-05-18T05:56:21.438Z,101136.78
2023-05-18T05:56:52.847Z,101135.13
2023-05-18T05:57:24.245Z,101132.41
2023-05-18T05:57:55.714Z,101135.13
2023-05-18T05:58:27.115Z,101137.53
2023-05-18T05:58:58.575Z,101143.53
2023-05-18T05:59:29.972Z,101146.03
2023-05-18T06:00:01.513Z,101137.84
2023-05-18T06:00:33.113Z,101137.34